createdAt,value
2018-12-22T00:02:09.548Z,23.43
2018-12-22T00:04:37.161Z,17.50
2018-12-22T00:07:04.636Z,19.97
2018-12-22T00:09:32.176Z,18.43
2018-12-22T00:11:59.684Z,16.43
2018-12-22T00:14:27.480Z,15.70
2018-12-22T00:16:54.982Z,14.97
2018-12-22T00:19:22.492Z,15.30
2018-12-22T00:21:49.966Z,14.93
2018-12-22T00:24:17.445Z,12.20
2018-12-22T00:26:44.949Z,10.77
2018-12-22T00:29:12.419Z,9.40
2018-12-22T00:31:39.891Z,10.00
2018-12-22T00:34:07.405Z,9.50
2018-12-22T00:36:34.876Z,7.77
2018-12-22T00:39:02.352Z,6.90
2018-12-22T00:41:29.852Z,6.37
2018-12-22T00:43:57.333Z,5.97
2018-12-22T00:46:24.803Z,5.90
2018-12-22T00:48:52.405Z,5.47
2018-12-22T00:51:19.872Z,5.20
2018-12-22T00:53:47.348Z,5.17
2018-12-22T00:56:14.853Z,4.63
2018-12-22T00:58:42.325Z,5.20
2018-12-22T01:01:09.806Z,4.77
2018-12-22T01:03:37.304Z,4.43
2018-12-22T01:06:04.873Z,4.50
2018-12-22T01:08:32.340Z,3.73
2018-12-22T01:11:00.740Z,4.00
2018-12-22T01:13:28.214Z,3.80
2018-12-22T01:15:55.764Z,4.27
2018-12-22T01:18:23.301Z,4.07
2018-12-22T01:20:50.782Z,3.67
2018-12-22T01:23:18.252Z,3.57
2018-12-22T01:25:45.751Z,4.07
2018-12-22T01:28:13.221Z,4.10
2018-12-22T01:30:40.688Z,5.50
2018-12-22T01:33:08.187Z,3.47
2018-12-22T01:35:35.658Z,3.83
2018-12-22T01:38:03.220Z,4.10
2018-12-22T01:40:30.734Z,4.00
2018-12-22T01:42:58.201Z,3.53
2018-12-22T01:45:25.673Z,3.80
2018-12-22T01:47:53.167Z,3.90
2018-12-22T01:50:20.679Z,4.10
2018-12-22T01:52:48.146Z,3.80
2018-12-22T01:55:15.642Z,3.50
2018-12-22T01:57:43.112Z,3.27
2018-12-22T02:00:10.592Z,4.07
2018-12-22T02:02:38.092Z,3.60
2018-12-22T02:05:05.661Z,3.43
2018-12-22T02:07:33.128Z,3.20
2018-12-22T02:10:00.632Z,3.70
2018-12-22T02:12:28.144Z,3.10
2018-12-22T02:14:55.612Z,3.70
2018-12-22T02:17:23.113Z,3.50
2018-12-22T02:19:50.584Z,3.63
2018-12-22T02:22:18.056Z,3.70
2018-12-22T02:24:45.553Z,3.60
2018-12-22T02:27:13.026Z,3.03
2018-12-22T02:29:40.492Z,2.93
2018-12-22T02:32:08.109Z,3.00
2018-12-22T02:34:35.578Z,3.23
2018-12-22T02:37:03.044Z,2.77
2018-12-22T02:39:30.568Z,2.83
2018-12-22T02:41:58.042Z,2.80
2018-12-22T02:44:25.515Z,3.10
2018-12-22T02:46:53.013Z,2.87
2018-12-22T02:49:20.501Z,3.00
2018-12-22T02:51:47.976Z,2.90
2018-12-22T02:54:15.469Z,2.87
2018-12-22T02:56:42.943Z,3.00
2018-12-22T02:59:10.421Z,3.60
2018-12-22T03:01:37.911Z,2.47
2018-12-22T03:04:05.489Z,2.70
2018-12-22T03:06:32.958Z,2.87
2018-12-22T03:09:00.469Z,2.90
2018-12-22T03:11:27.943Z,3.07
2018-12-22T03:13:55.679Z,2.97
2018-12-22T03:16:23.226Z,2.60
2018-12-22T03:18:50.696Z,2.60
2018-12-22T03:21:18.165Z,2.30
2018-12-22T03:23:45.660Z,2.47
2018-12-22T03:26:13.131Z,2.87
2018-12-22T03:28:40.604Z,2.47
2018-12-22T03:31:08.128Z,2.20
2018-12-22T03:33:35.782Z,1.80
2018-12-22T03:36:03.388Z,2.30
2018-12-22T03:38:31.000Z,2.10
2018-12-22T03:40:58.474Z,1.97
2018-12-22T03:43:25.949Z,1.60
2018-12-22T03:45:53.447Z,1.80
2018-12-22T03:48:21.084Z,2.07
2018-12-22T03:50:48.549Z,1.60
2018-12-22T03:53:16.057Z,1.90
2018-12-22T03:55:43.533Z,2.10
2018-12-22T03:58:11.000Z,1.70
2018-12-22T04:00:38.513Z,1.70
2018-12-22T04:03:05.985Z,1.53
2018-12-22T04:05:33.462Z,1.60
2018-12-22T04:08:00.954Z,1.13
2018-12-22T04:10:28.429Z,1.20
2018-12-22T04:12:55.920Z,1.13
2018-12-22T04:15:23.436Z,0.80
2018-12-22T04:17:51.517Z,1.17
2018-12-22T04:20:23.970Z,1.00
2018-12-22T04:22:51.448Z,0.93
2018-12-22T04:25:18.921Z,0.90
2018-12-22T04:27:46.417Z,0.87
2018-12-22T04:30:13.890Z,1.40
2018-12-22T04:32:41.359Z,1.10
2018-12-22T04:35:08.876Z,0.70
2018-12-22T04:37:36.347Z,0.90
2018-12-22T04:40:04.703Z,0.63
2018-12-22T04:42:32.197Z,0.73
2018-12-22T04:44:59.670Z,0.87
2018-12-22T04:47:27.142Z,0.70
2018-12-22T04:49:54.641Z,0.70
2018-12-22T04:52:22.132Z,0.90
2018-12-22T04:54:49.612Z,0.93
2018-12-22T04:57:17.119Z,0.60
2018-12-22T04:59:44.593Z,0.70
2018-12-22T05:02:12.066Z,0.40
2018-12-22T05:04:39.577Z,0.70
2018-12-22T05:07:07.049Z,0.63
2018-12-22T05:09:34.522Z,0.57
2018-12-22T05:12:02.016Z,0.50
2018-12-22T05:14:29.495Z,0.60
2018-12-22T05:16:57.380Z,0.90
2018-12-22T05:19:24.886Z,0.70
2018-12-22T05:21:52.360Z,0.80
2018-12-22T05:24:19.840Z,0.80
2018-12-22T05:26:47.331Z,0.50
2018-12-22T05:29:14.795Z,0.57
2018-12-22T05:31:42.265Z,0.40
2018-12-22T05:34:09.770Z,0.50
2018-12-22T05:36:37.246Z,0.70
2018-12-22T05:39:05.815Z,0.43
2018-12-22T05:41:33.316Z,0.30
2018-12-22T05:44:00.793Z,0.40
2018-12-22T05:46:28.269Z,0.60
2018-12-22T05:48:55.784Z,0.50
2018-12-22T05:51:23.269Z,0.60
2018-12-22T05:53:50.744Z,0.50
2018-12-22T05:56:18.250Z,0.60
2018-12-22T05:58:45.721Z,0.53
2018-12-22T06:01:13.196Z,0.70
2018-12-22T06:03:40.972Z,0.63
2018-12-22T06:06:08.442Z,0.70
2018-12-22T06:08:35.913Z,0.70
2018-12-22T06:11:03.502Z,0.70
2018-12-22T06:13:30.980Z,0.70
2018-12-22T06:15:58.461Z,0.70
2018-12-22T06:18:25.975Z,0.70
2018-12-22T06:20:53.456Z,1.00
2018-12-22T06:23:20.941Z,0.93
2018-12-22T06:25:48.441Z,0.70
2018-12-22T06:28:15.921Z,0.63
2018-12-22T06:30:43.401Z,0.80
2018-12-22T06:33:10.905Z,0.70
2018-12-22T06:35:38.377Z,1.00
2018-12-22T06:38:05.856Z,0.90
2018-12-22T06:40:33.375Z,1.20
2018-12-22T06:43:00.859Z,1.20
2018-12-22T06:45:29.329Z,1.30
2018-12-22T06:47:56.837Z,1.40
2018-12-22T06:50:24.308Z,0.70
2018-12-22T06:52:51.784Z,0.93
2018-12-22T06:55:19.285Z,1.57
2018-12-22T06:57:46.772Z,1.30
2018-12-22T07:00:17.912Z,1.03
2018-12-22T07:02:43.771Z,1.10
2018-12-22T07:05:11.332Z,1.10
2018-12-22T07:07:38.812Z,0.93
2018-12-22T07:10:08.300Z,1.20
2018-12-22T07:12:35.773Z,1.17
2018-12-22T07:15:04.277Z,1.10
2018-12-22T07:17:32.678Z,1.00
2018-12-22T07:20:00.190Z,1.00
2018-12-22T07:22:27.661Z,1.03
2018-12-22T07:24:55.261Z,1.00
2018-12-22T07:27:22.840Z,0.90
2018-12-22T07:29:50.325Z,1.20
2018-12-22T07:32:17.824Z,0.90
2018-12-22T07:34:45.309Z,1.10
2018-12-22T07:37:12.778Z,0.90
2018-12-22T07:39:40.280Z,1.00
2018-12-22T07:42:07.757Z,0.80
2018-12-22T07:44:35.260Z,1.00
2018-12-22T07:47:02.847Z,1.00
2018-12-22T07:49:30.323Z,0.90
2018-12-22T07:51:57.793Z,0.80
2018-12-22T07:54:25.298Z,0.83
2018-12-22T07:56:52.773Z,0.80
2018-12-22T07:59:20.241Z,1.00
2018-12-22T08:01:47.752Z,0.87
2018-12-22T08:04:15.220Z,0.80
2018-12-22T08:06:42.695Z,0.80
2018-12-22T08:09:10.189Z,0.90
2018-12-22T08:11:37.659Z,0.80
2018-12-22T08:14:05.141Z,0.90
2018-12-22T08:16:32.629Z,0.80
2018-12-22T08:19:00.097Z,0.70
2018-12-22T08:21:27.576Z,1.07
2018-12-22T08:23:55.081Z,1.00
2018-12-22T08:26:22.559Z,0.67
2018-12-22T08:28:50.029Z,1.00
2018-12-22T08:31:17.527Z,1.10
2018-12-22T08:33:45.001Z,1.30
2018-12-22T08:36:12.475Z,1.70
2018-12-22T08:38:40.005Z,1.50
2018-12-22T08:41:07.473Z,1.60
2018-12-22T08:43:34.945Z,1.17
2018-12-22T08:46:02.452Z,1.70
2018-12-22T08:48:29.920Z,1.23
2018-12-22T08:50:57.394Z,1.37
2018-12-22T08:53:24.880Z,2.00
2018-12-22T08:55:52.350Z,2.13
2018-12-22T08:58:19.826Z,1.17
2018-12-22T09:00:52.524Z,1.40
2018-12-22T09:03:20.084Z,1.20
2018-12-22T09:05:47.545Z,2.40
2018-12-22T09:08:15.053Z,1.80
2018-12-22T09:10:42.520Z,1.73
2018-12-22T09:13:09.994Z,1.20
2018-12-22T09:15:37.497Z,1.40
2018-12-22T09:18:04.965Z,0.87
2018-12-22T09:20:32.440Z,1.10
2018-12-22T09:22:59.941Z,0.90
2018-12-22T09:25:27.404Z,1.00
2018-12-22T09:27:54.873Z,1.10
2018-12-22T09:30:22.451Z,0.97
2018-12-22T09:32:49.926Z,1.10
2018-12-22T09:35:17.396Z,1.20
2018-12-22T09:37:44.904Z,1.20
2018-12-22T09:40:12.376Z,1.10
2018-12-22T09:42:39.853Z,1.40
2018-12-22T09:45:07.648Z,1.80
2018-12-22T09:47:36.480Z,1.40
2018-12-22T09:50:07.441Z,1.40
2018-12-22T09:52:35.023Z,1.13
2018-12-22T09:55:02.701Z,1.57
2018-12-22T09:57:30.199Z,1.40
2018-12-22T09:59:57.672Z,1.30
2018-12-22T10:02:25.148Z,0.50
2018-12-22T10:04:52.648Z,1.80
2018-12-22T10:07:20.146Z,1.10
2018-12-22T10:09:47.620Z,1.27
2018-12-22T10:12:15.129Z,1.30
2018-12-22T10:14:42.601Z,1.60
2018-12-22T10:17:10.073Z,1.00
2018-12-22T10:19:37.562Z,1.00
2018-12-22T10:22:05.031Z,0.80
2018-12-22T10:24:32.768Z,0.80
2018-12-22T10:27:00.271Z,0.73
2018-12-22T10:29:27.839Z,0.70
2018-12-22T10:31:55.330Z,0.83
2018-12-22T10:34:22.829Z,3.13
2018-12-22T10:36:50.305Z,2.40
2018-12-22T10:39:17.776Z,1.80
2018-12-22T10:41:45.280Z,2.13
2018-12-22T10:44:12.753Z,3.27
2018-12-22T10:46:40.224Z,1.50
2018-12-22T10:49:07.835Z,1.37
2018-12-22T10:51:35.309Z,2.60
2018-12-22T10:54:02.776Z,1.53
2018-12-22T10:56:30.287Z,2.40
2018-12-22T10:58:57.753Z,1.83
2018-12-22T11:01:26.719Z,1.70
2018-12-22T11:03:54.620Z,1.80
2018-12-22T11:06:22.173Z,1.63
2018-12-22T11:08:49.632Z,1.50
2018-12-22T11:11:17.159Z,1.50
2018-12-22T11:13:44.633Z,1.10
2018-12-22T11:16:13.026Z,1.40
2018-12-22T11:18:40.525Z,1.40
2018-12-22T11:21:07.997Z,1.40
2018-12-22T11:23:35.465Z,1.60
2018-12-22T11:26:02.978Z,1.50
2018-12-22T11:28:30.445Z,1.60
2018-12-22T11:30:57.920Z,1.47
2018-12-22T11:33:25.459Z,1.40
2018-12-22T11:35:52.939Z,1.20
2018-12-22T11:38:20.471Z,1.57
2018-12-22T11:40:48.004Z,1.40
2018-12-22T11:43:15.497Z,1.33
2018-12-22T11:45:43.054Z,1.30
2018-12-22T11:48:14.265Z,1.20
2018-12-22T11:50:41.741Z,1.20
2018-12-22T11:53:09.219Z,1.50
2018-12-22T11:55:36.740Z,1.70
2018-12-22T11:58:04.328Z,1.50
2018-12-22T12:00:31.832Z,1.20
2018-12-22T12:02:59.341Z,1.60
2018-12-22T12:05:26.838Z,1.73
2018-12-22T12:07:54.316Z,1.80
2018-12-22T12:10:21.873Z,1.77
2018-12-22T12:12:49.349Z,1.93
2018-12-22T12:15:18.724Z,1.77
2018-12-22T12:17:51.794Z,1.50
2018-12-22T12:20:19.386Z,1.90
2018-12-22T12:22:46.880Z,1.60
2018-12-22T12:25:14.388Z,1.73
2018-12-22T12:27:41.866Z,1.67
2018-12-22T12:30:09.649Z,1.90
2018-12-22T12:32:37.143Z,2.07
2018-12-22T12:35:06.125Z,1.77
2018-12-22T12:37:33.598Z,1.73
2018-12-22T12:40:01.107Z,1.87
2018-12-22T12:42:28.589Z,2.07
2018-12-22T12:44:56.061Z,2.30
2018-12-22T12:47:23.744Z,2.37
2018-12-22T12:49:51.216Z,3.70
2018-12-22T12:52:18.684Z,5.53
2018-12-22T12:54:46.170Z,4.87
2018-12-22T12:57:13.638Z,4.50
2018-12-22T12:59:41.104Z,3.77
2018-12-22T13:02:08.604Z,3.37
2018-12-22T13:04:36.065Z,4.27
2018-12-22T13:07:03.541Z,4.00
2018-12-22T13:09:31.064Z,4.03
2018-12-22T13:11:58.524Z,4.43
2018-12-22T13:14:25.996Z,5.53
2018-12-22T13:16:53.495Z,4.77
2018-12-22T13:19:20.964Z,5.20
2018-12-22T13:21:48.442Z,4.80
2018-12-22T13:24:15.940Z,4.40
2018-12-22T13:26:43.404Z,4.30
2018-12-22T13:29:10.876Z,4.70
2018-12-22T13:31:38.471Z,10.00
2018-12-22T13:34:06.681Z,10.83
2018-12-22T13:36:34.877Z,9.20
2018-12-22T13:39:04.662Z,12.67
2018-12-22T13:41:32.137Z,8.83
2018-12-22T13:43:59.647Z,9.60
2018-12-22T13:46:27.202Z,6.27
2018-12-22T13:48:55.070Z,5.40
2018-12-22T13:51:23.251Z,6.83
2018-12-22T13:53:50.989Z,6.00
2018-12-22T13:56:18.456Z,5.80
2018-12-22T13:58:45.932Z,5.70
2018-12-22T14:01:13.536Z,8.27
2018-12-22T14:03:41.101Z,8.10
2018-12-22T14:06:08.664Z,7.93
2018-12-22T14:08:36.178Z,5.27
2018-12-22T14:11:03.660Z,8.03
2018-12-22T14:13:31.233Z,7.53
2018-12-22T14:15:58.824Z,7.63
2018-12-22T14:18:32.127Z,6.80
2018-12-22T14:20:59.621Z,8.37
2018-12-22T14:23:35.527Z,6.57
2018-12-22T14:26:03.017Z,6.93
2018-12-22T14:28:30.489Z,9.57
2018-12-22T14:30:58.039Z,6.20
2018-12-22T14:33:25.541Z,6.27
2018-12-22T14:35:53.013Z,9.43
2018-12-22T14:38:20.488Z,10.43
2018-12-22T14:40:47.998Z,14.20
2018-12-22T14:43:15.500Z,8.50
2018-12-22T14:45:42.967Z,7.00
2018-12-22T14:48:10.472Z,6.77
2018-12-22T14:50:37.947Z,14.83
2018-12-22T14:53:05.439Z,9.37
2018-12-22T14:55:32.957Z,9.90
2018-12-22T14:58:01.627Z,10.00
2018-12-22T15:00:29.096Z,8.30
2018-12-22T15:02:56.613Z,7.33
2018-12-22T15:05:24.128Z,7.67
2018-12-22T15:07:51.604Z,13.00
2018-12-22T15:10:19.105Z,11.90
2018-12-22T15:12:46.581Z,15.87
2018-12-22T15:15:14.160Z,13.97
2018-12-22T15:17:43.191Z,15.57
2018-12-22T15:20:15.812Z,13.03
2018-12-22T15:22:43.324Z,10.73
2018-12-22T15:25:10.797Z,9.57
2018-12-22T15:27:38.382Z,9.10
2018-12-22T15:30:10.418Z,8.60
2018-12-22T15:32:44.142Z,8.23
2018-12-22T15:35:08.666Z,7.80
2018-12-22T15:37:36.373Z,8.50
2018-12-22T15:40:07.129Z,7.07
2018-12-22T15:42:34.688Z,7.90
2018-12-22T15:45:03.195Z,7.93
2018-12-22T15:47:30.668Z,8.10
2018-12-22T15:49:58.138Z,8.00
2018-12-22T15:52:25.661Z,11.47
2018-12-22T15:54:53.128Z,7.83
2018-12-22T15:57:20.595Z,7.73
2018-12-22T15:59:48.097Z,7.37
2018-12-22T16:02:15.565Z,8.23
2018-12-22T16:04:43.042Z,8.17
2018-12-22T16:07:10.559Z,6.90
2018-12-22T16:09:38.033Z,7.47
2018-12-22T16:12:05.521Z,6.12
2018-12-22T16:14:33.035Z,6.87
2018-12-22T16:17:00.545Z,7.10
2018-12-22T16:19:28.023Z,7.20
2018-12-22T16:21:55.516Z,6.90
2018-12-22T16:24:23.069Z,7.23
2018-12-22T16:26:50.600Z,7.10
2018-12-22T16:29:18.183Z,7.07
2018-12-22T16:31:45.657Z,7.77
2018-12-22T16:34:13.133Z,7.13
2018-12-22T16:36:40.666Z,7.80
2018-12-22T16:39:08.141Z,8.60
2018-12-22T16:41:35.609Z,6.70
2018-12-22T16:44:03.816Z,8.70
2018-12-22T16:46:31.284Z,8.87
2018-12-22T16:48:58.782Z,8.30
2018-12-22T16:51:26.273Z,8.57
2018-12-22T16:53:53.745Z,9.23
2018-12-22T16:56:21.312Z,8.37
2018-12-22T16:58:48.930Z,8.93
2018-12-22T17:01:21.123Z,8.47
2018-12-22T17:03:49.688Z,8.83
2018-12-22T17:06:17.169Z,10.60
2018-12-22T17:08:44.645Z,10.03
2018-12-22T17:11:12.145Z,10.57
2018-12-22T17:13:40.016Z,15.17
2018-12-22T17:16:07.494Z,9.40
2018-12-22T17:18:35.035Z,14.57
2018-12-22T17:21:08.224Z,10.50
2018-12-22T17:23:41.576Z,10.57
2018-12-22T17:26:09.053Z,9.10
2018-12-22T17:28:36.540Z,11.87
2018-12-22T17:31:04.033Z,12.50
2018-12-22T17:33:31.505Z,11.73
2018-12-22T17:35:58.987Z,10.97
2018-12-22T17:38:26.512Z,10.23
2018-12-22T17:40:54.086Z,11.67
2018-12-22T17:43:21.562Z,11.93
2018-12-22T17:45:49.088Z,10.33
2018-12-22T17:48:16.556Z,11.73
2018-12-22T17:50:44.029Z,10.80
2018-12-22T17:53:11.554Z,10.50
2018-12-22T17:55:39.024Z,10.87
2018-12-22T17:58:06.501Z,10.47
2018-12-22T18:00:34.028Z,10.83
2018-12-22T18:03:01.505Z,10.83
2018-12-22T18:05:28.981Z,11.03
2018-12-22T18:07:56.492Z,10.60
2018-12-22T18:12:57.860Z,12.20
2018-12-22T18:15:25.829Z,10.90
2018-12-22T18:17:53.308Z,12.13
2018-12-22T18:20:20.819Z,11.87
2018-12-22T18:22:48.287Z,11.97
2018-12-22T18:25:19.264Z,12.07
2018-12-22T18:27:48.961Z,11.60
2018-12-22T18:30:16.443Z,12.27
2018-12-22T18:32:44.912Z,13.00
2018-12-22T18:35:12.521Z,12.33
2018-12-22T18:37:39.996Z,12.57
2018-12-22T18:40:12.216Z,12.43
2018-12-22T18:42:39.787Z,13.43
2018-12-22T18:45:09.949Z,13.20
2018-12-22T18:47:37.480Z,12.80
2018-12-22T18:50:12.164Z,14.20
2018-12-22T18:52:39.660Z,13.03
2018-12-22T18:55:08.821Z,13.53
2018-12-22T18:57:36.493Z,13.17
2018-12-22T19:00:07.970Z,14.17
2018-12-22T19:02:35.436Z,13.00
2018-12-22T19:05:02.916Z,14.50
2018-12-22T19:07:30.419Z,13.57
2018-12-22T19:09:57.894Z,14.37
2018-12-22T19:12:25.384Z,14.00
2018-12-22T19:14:53.575Z,13.20
2018-12-22T19:17:21.040Z,13.07
2018-12-22T19:19:48.800Z,12.83
2018-12-22T19:22:16.312Z,13.50
2018-12-22T19:24:43.784Z,12.97
2018-12-22T19:27:11.272Z,14.23
2018-12-22T19:29:38.961Z,13.47
2018-12-22T19:32:06.436Z,12.73
2018-12-22T19:34:33.920Z,12.50
2018-12-22T19:37:01.428Z,13.13
2018-12-22T19:39:28.901Z,13.13
2018-12-22T19:41:56.666Z,12.90
2018-12-22T19:44:24.237Z,12.70
2018-12-22T19:46:51.709Z,14.60
2018-12-22T19:49:19.185Z,16.17
2018-12-22T19:51:46.688Z,14.30
2018-12-22T19:54:14.171Z,14.03
2018-12-22T19:56:41.637Z,13.70
2018-12-22T19:59:09.150Z,14.07
2018-12-22T20:01:36.624Z,13.27
2018-12-22T20:04:04.097Z,13.13
2018-12-22T20:06:31.684Z,12.30
2018-12-22T20:08:59.164Z,12.40
2018-12-22T20:11:27.093Z,13.77
2018-12-22T20:13:54.589Z,13.20
2018-12-22T20:16:22.069Z,13.57
2018-12-22T20:18:49.545Z,12.97
2018-12-22T20:21:17.049Z,14.23
2018-12-22T20:23:44.532Z,13.73
2018-12-22T20:26:12.013Z,14.47
2018-12-22T20:28:39.529Z,14.73
2018-12-22T20:31:06.997Z,15.67
2018-12-22T20:33:34.477Z,14.87
2018-12-22T20:36:01.997Z,14.43
2018-12-22T20:38:29.473Z,14.73
2018-12-22T20:40:57.269Z,15.27
2018-12-22T20:43:24.769Z,14.40
2018-12-22T20:45:52.261Z,15.10
2018-12-22T20:48:19.768Z,15.90
2018-12-22T20:50:47.279Z,15.83
2018-12-22T20:53:14.757Z,16.00
2018-12-22T20:55:42.229Z,18.80
2018-12-22T20:58:09.737Z,17.53
2018-12-22T21:00:37.211Z,17.87
2018-12-22T21:03:04.692Z,15.30
2018-12-22T21:05:35.116Z,16.13
2018-12-22T21:08:02.594Z,17.70
2018-12-22T21:10:30.069Z,17.37
2018-12-22T21:12:57.576Z,17.17
2018-12-22T21:15:25.048Z,15.90
2018-12-22T21:17:52.519Z,16.90
2018-12-22T21:20:20.030Z,15.67
2018-12-22T21:22:47.501Z,15.30
2018-12-22T21:25:14.978Z,15.33
2018-12-22T21:27:42.496Z,15.83
2018-12-22T21:30:09.973Z,16.80
2018-12-22T21:32:37.450Z,16.10
2018-12-22T21:35:05.041Z,17.10
2018-12-22T21:37:32.520Z,15.83
2018-12-22T21:39:59.992Z,15.37
2018-12-22T21:42:27.501Z,15.63
2018-12-22T21:44:54.969Z,15.63
2018-12-22T21:47:22.445Z,15.40
2018-12-22T21:49:50.157Z,15.53
2018-12-22T21:52:17.637Z,15.23
2018-12-22T21:54:45.113Z,16.50
2018-12-22T21:57:12.618Z,17.03
2018-12-22T21:59:40.188Z,20.90
2018-12-22T22:02:07.665Z,16.70
2018-12-22T22:04:37.140Z,16.23
2018-12-22T22:07:04.675Z,15.63
2018-12-22T22:09:32.153Z,15.90
2018-12-22T22:11:59.652Z,15.90
2018-12-22T22:14:27.133Z,15.60
2018-12-22T22:16:54.706Z,16.80
2018-12-22T22:19:22.245Z,16.67
2018-12-22T22:21:49.717Z,15.63
2018-12-22T22:24:17.197Z,17.00
2018-12-22T22:26:44.696Z,15.70
2018-12-22T22:29:12.240Z,16.67
2018-12-22T22:31:39.767Z,15.80
2018-12-22T22:34:07.273Z,15.83
2018-12-22T22:36:34.744Z,17.33
2018-12-22T22:39:02.520Z,18.23
2018-12-22T22:41:30.012Z,17.93
2018-12-22T22:43:57.488Z,19.20
2018-12-22T22:46:24.964Z,21.07
2018-12-22T22:48:52.492Z,20.63
2018-12-22T22:51:20.027Z,22.50
2018-12-22T22:53:47.561Z,20.97
2018-12-22T22:56:15.056Z,20.77
2018-12-22T22:58:42.545Z,20.13
2018-12-22T23:01:10.205Z,20.33
2018-12-22T23:03:37.708Z,20.77
2018-12-22T23:06:05.186Z,21.77
2018-12-22T23:08:32.652Z,22.27
2018-12-22T23:11:00.166Z,22.27
2018-12-22T23:13:27.641Z,22.10
2018-12-22T23:15:55.120Z,21.60
2018-12-22T23:18:22.630Z,23.83
2018-12-22T23:20:50.101Z,23.43
2018-12-22T23:23:17.570Z,23.90
2018-12-22T23:25:45.081Z,23.33
2018-12-22T23:28:12.553Z,22.37
2018-12-22T23:30:40.025Z,19.97
2018-12-22T23:33:07.634Z,20.87
2018-12-22T23:35:35.117Z,20.63
2018-12-22T23:38:02.594Z,20.17
2018-12-22T23:40:30.091Z,20.63
2018-12-22T23:42:57.564Z,21.53
2018-12-22T23:45:25.117Z,21.73
2018-12-22T23:47:52.624Z,22.47
2018-12-22T23:50:20.100Z,21.27
2018-12-22T23:52:47.579Z,21.63
2018-12-22T23:55:15.081Z,22.00
2018-12-22T23:57:42.554Z,22.60
